F/V Le Dolmen — FHMD — position and weather

sailwx.info

Track history (hours):
 
Tides and Currents Weather Stations Pressure Air Temp Water Temp Dewpoint Dewpoint Depression Visibility Wind Speed Wind Dir Waves Ship Positions

F/V Le Dolmen

Last reported at 2016-Jun-30 02:34 UTC. Time now 2016-Jun-30 12:25 UTC.
Position N 47°44' W 003°22'.

Length 18 m.

Type: Fishing. MMSI: 228374000.

Date/timePositionNaut miles runAvg speedWind from/ knotsBaromVisibWave heightAir tempDewpointWater temp
2016-Jun-30 02:34N 47°44' W 003°22'0 0.1
2016-Jun-30 01:34N 47°44' W 003°22'1 0.6
2016-Jun-30 00:34N 47°43' W 003°22'8 7.6
2016-Jun-29 23:34N 47°40' W 003°32'8 8.1
2016-Jun-29 22:33N 47°38' W 003°44'20 1.1
2016-Jun-29 04:29N 47°27' W 004°08'36 3.3
2016-Jun-28 17:32N 47°43' W 004°57'3 3.5
2016-Jun-28 16:33N 47°43' W 005°02'83 2.4
2016-Jun-27 06:33N 47°16' W 003°05'9 9.1
2016-Jun-27 05:33N 47°18' W 002°52'9 9.3
2016-Jun-27 04:33N 47°20' W 002°39'2 0.5
2016-Jun-27 00:33N 47°20' W 002°36'9 9.5
2016-Jun-26 23:33N 47°18' W 002°49'10 9.6
2016-Jun-26 22:33N 47°16' W 003°03'9 9.1
2016-Jun-26 21:34N 47°15' W 003°16'27 0.5
2016-Jun-24 20:26N 47°37' W 003°39'7 8.2
2016-Jun-24 19:33N 47°40' W 003°29'5 5.3
2016-Jun-24 18:32N 47°43' W 003°22'1 1.0
2016-Jun-24 17:33N 47°44' W 003°22'0 0.1
2016-Jun-24 16:32N 47°44' W 003°22'0 0.1
2016-Jun-24 15:32N 47°44' W 003°22'0 0.0
2016-Jun-24 14:33N 47°44' W 003°22'0 0.0
2016-Jun-24 13:32N 47°44' W 003°22'8 8.0
2016-Jun-24 12:32N 47°40' W 003°32'71 3.9
2016-Jun-23 18:32N 47°37' W 005°17'4 2.7
2016-Jun-23 17:13N 47°33' W 005°19'3 3.3
2016-Jun-23 16:23N 47°31' W 005°19'4 3.0
2016-Jun-23 15:04N 47°29' W 005°14'5 0.5
2016-Jun-23 05:31N 47°31' W 005°20'1 0.3
2016-Jun-23 02:27N 47°30' W 005°19'3 1.4
2016-Jun-23 00:31N 47°30' W 005°16'6 0.6
2016-Jun-22 14:14N 47°35' W 005°20'73 1.8
2016-Jun-20 21:33N 47°42' W 003°32'7 7.2
2016-Jun-20 20:34N 47°44' W 003°22'0 0.2
2016-Jun-20 19:34N 47°44' W 003°22'0 0.0
2016-Jun-20 18:33N 47°44' W 003°22'2 1.9
2016-Jun-20 17:33N 47°42' W 003°22'9 9.2
2016-Jun-20 16:34N 47°42' W 003°36'30 9.9
2016-Jun-20 13:33N 47°45' W 004°20'  
Track history (hours):
 
Tides and Currents Weather Stations Pressure Air Temp Water Temp Dewpoint Dewpoint Depression Visibility Wind Speed Wind Dir Waves Ship Positions

F/V Le Dolmen

Last reported at 2016-Jun-30 02:34 UTC. Time now 2016-Jun-30 12:25 UTC.
Position N 47°44' W 003°22'.

Length 18 m.

Type: Fishing. MMSI: 228374000.

Date/timePositionNaut miles runAvg speedWind from/ knotsBaromVisibWave heightAir tempDewpointWater temp
2016-Jun-30 02:34N 47°44' W 003°22'0 0.1
2016-Jun-30 01:34N 47°44' W 003°22'1 0.6
2016-Jun-30 00:34N 47°43' W 003°22'8 7.6
2016-Jun-29 23:34N 47°40' W 003°32'8 8.1
2016-Jun-29 22:33N 47°38' W 003°44'20 1.1
2016-Jun-29 04:29N 47°27' W 004°08'36 3.3
2016-Jun-28 17:32N 47°43' W 004°57'3 3.5
2016-Jun-28 16:33N 47°43' W 005°02'83 2.4
2016-Jun-27 06:33N 47°16' W 003°05'9 9.1
2016-Jun-27 05:33N 47°18' W 002°52'9 9.3
2016-Jun-27 04:33N 47°20' W 002°39'2 0.5
2016-Jun-27 00:33N 47°20' W 002°36'9 9.5
2016-Jun-26 23:33N 47°18' W 002°49'10 9.6
2016-Jun-26 22:33N 47°16' W 003°03'9 9.1
2016-Jun-26 21:34N 47°15' W 003°16'27 0.5
2016-Jun-24 20:26N 47°37' W 003°39'7 8.2
2016-Jun-24 19:33N 47°40' W 003°29'5 5.3
2016-Jun-24 18:32N 47°43' W 003°22'1 1.0
2016-Jun-24 17:33N 47°44' W 003°22'0 0.1
2016-Jun-24 16:32N 47°44' W 003°22'0 0.1
2016-Jun-24 15:32N 47°44' W 003°22'0 0.0
2016-Jun-24 14:33N 47°44' W 003°22'0 0.0
2016-Jun-24 13:32N 47°44' W 003°22'8 8.0
2016-Jun-24 12:32N 47°40' W 003°32'71 3.9
2016-Jun-23 18:32N 47°37' W 005°17'4 2.7
2016-Jun-23 17:13N 47°33' W 005°19'3 3.3
2016-Jun-23 16:23N 47°31' W 005°19'4 3.0
2016-Jun-23 15:04N 47°29' W 005°14'5 0.5
2016-Jun-23 05:31N 47°31' W 005°20'1 0.3
2016-Jun-23 02:27N 47°30' W 005°19'3 1.4
2016-Jun-23 00:31N 47°30' W 005°16'6 0.6
2016-Jun-22 14:14N 47°35' W 005°20'73 1.8
2016-Jun-20 21:33N 47°42' W 003°32'7 7.2
2016-Jun-20 20:34N 47°44' W 003°22'0 0.2
2016-Jun-20 19:34N 47°44' W 003°22'0 0.0
2016-Jun-20 18:33N 47°44' W 003°22'2 1.9
2016-Jun-20 17:33N 47°42' W 003°22'9 9.2
2016-Jun-20 16:34N 47°42' W 003°36'30 9.9
2016-Jun-20 13:33N 47°45' W 004°20'  

Dump ship's entire track history